sensor_id;sensor_type;location;lat;lon;timestamp;P1;durP1;ratioP1;P2;durP2;ratioP2
33573;SDS011;20085;50.832;4.392;2022-09-09T00:01:07;5.68;;;1.73;;
33573;SDS011;20085;50.832;4.392;2022-09-09T00:03:43;6.00;;;1.70;;
33573;SDS011;20085;50.832;4.392;2022-09-09T00:06:22;4.33;;;1.37;;
33573;SDS011;20085;50.832;4.392;2022-09-09T00:09:00;6.32;;;1.80;;
33573;SDS011;20085;50.832;4.392;2022-09-09T00:17:21;5.65;;;1.45;;
33573;SDS011;20085;50.832;4.392;2022-09-09T00:20:42;6.13;;;1.80;;
33573;SDS011;20085;50.832;4.392;2022-09-09T00:23:27;7.53;;;2.03;;
33573;SDS011;20085;50.832;4.392;2022-09-09T00:26:19;7.97;;;2.05;;
33573;SDS011;20085;50.832;4.392;2022-09-09T00:29:19;8.25;;;2.10;;
33573;SDS011;20085;50.832;4.392;2022-09-09T00:31:55;6.18;;;1.90;;
33573;SDS011;20085;50.832;4.392;2022-09-09T00:34:30;6.13;;;1.90;;
33573;SDS011;20085;50.832;4.392;2022-09-09T00:36:57;7.03;;;1.60;;
33573;SDS011;20085;50.832;4.392;2022-09-09T00:39:31;7.15;;;1.85;;
33573;SDS011;20085;50.832;4.392;2022-09-09T00:44:40;11.25;;;1.92;;
33573;SDS011;20085;50.832;4.392;2022-09-09T00:50:20;7.17;;;1.90;;
33573;SDS011;20085;50.832;4.392;2022-09-09T00:56:36;9.55;;;1.70;;
33573;SDS011;20085;50.832;4.392;2022-09-09T00:58:47;7.18;;;1.75;;
33573;SDS011;20085;50.832;4.392;2022-09-09T01:01:32;4.35;;;1.52;;
33573;SDS011;20085;50.832;4.392;2022-09-09T01:04:00;6.88;;;1.80;;
33573;SDS011;20085;50.832;4.392;2022-09-09T01:06:29;8.18;;;1.80;;
33573;SDS011;20085;50.832;4.392;2022-09-09T01:14:44;5.22;;;1.52;;
33573;SDS011;20085;50.832;4.392;2022-09-09T01:17:30;5.15;;;1.67;;
33573;SDS011;20085;50.832;4.392;2022-09-09T01:20:08;7.40;;;2.05;;
33573;SDS011;20085;50.832;4.392;2022-09-09T01:22:50;7.05;;;1.80;;
33573;SDS011;20085;50.832;4.392;2022-09-09T01:25:20;7.10;;;1.75;;
33573;SDS011;20085;50.832;4.392;2022-09-09T01:30:21;6.90;;;2.05;;
33573;SDS011;20085;50.832;4.392;2022-09-09T01:32:53;11.70;;;2.47;;
33573;SDS011;20085;50.832;4.392;2022-09-09T01:38:02;8.20;;;1.77;;
33573;SDS011;20085;50.832;4.392;2022-09-09T01:40:28;10.05;;;2.10;;
33573;SDS011;20085;50.832;4.392;2022-09-09T01:42:53;11.80;;;2.08;;
33573;SDS011;20085;50.832;4.392;2022-09-09T01:45:20;8.52;;;2.17;;
33573;SDS011;20085;50.832;4.392;2022-09-09T01:47:47;7.72;;;2.10;;
33573;SDS011;20085;50.832;4.392;2022-09-09T01:50:14;8.52;;;2.00;;
33573;SDS011;20085;50.832;4.392;2022-09-09T01:52:41;8.85;;;2.03;;
33573;SDS011;20085;50.832;4.392;2022-09-09T01:55:09;7.68;;;1.80;;
33573;SDS011;20085;50.832;4.392;2022-09-09T01:57:50;7.28;;;1.90;;
33573;SDS011;20085;50.832;4.392;2022-09-09T02:00:20;11.50;;;2.00;;
33573;SDS011;20085;50.832;4.392;2022-09-09T02:08:08;10.07;;;2.20;;
33573;SDS011;20085;50.832;4.392;2022-09-09T02:13:43;10.13;;;2.40;;
33573;SDS011;20085;50.832;4.392;2022-09-09T02:16:15;8.65;;;2.20;;
33573;SDS011;20085;50.832;4.392;2022-09-09T02:21:31;9.48;;;2.28;;
33573;SDS011;20085;50.832;4.392;2022-09-09T02:24:00;9.70;;;2.13;;
33573;SDS011;20085;50.832;4.392;2022-09-09T02:26:29;9.38;;;2.08;;
33573;SDS011;20085;50.832;4.392;2022-09-09T02:28:59;10.05;;;2.17;;
33573;SDS011;20085;50.832;4.392;2022-09-09T02:31:27;11.60;;;2.42;;
33573;SDS011;20085;50.832;4.392;2022-09-09T02:33:57;12.93;;;2.28;;
33573;SDS011;20085;50.832;4.392;2022-09-09T02:36:26;10.48;;;2.55;;
33573;SDS011;20085;50.832;4.392;2022-09-09T02:38:56;12.75;;;2.22;;
33573;SDS011;20085;50.832;4.392;2022-09-09T02:44:14;10.93;;;2.40;;
33573;SDS011;20085;50.832;4.392;2022-09-09T02:52:01;12.13;;;2.40;;
33573;SDS011;20085;50.832;4.392;2022-09-09T02:57:19;11.15;;;2.42;;
33573;SDS011;20085;50.832;4.392;2022-09-09T02:59:50;12.85;;;2.38;;
33573;SDS011;20085;50.832;4.392;2022-09-09T03:02:17;11.77;;;2.60;;
33573;SDS011;20085;50.832;4.392;2022-09-09T03:04:43;9.35;;;2.10;;
33573;SDS011;20085;50.832;4.392;2022-09-09T03:07:10;13.65;;;2.35;;
33573;SDS011;20085;50.832;4.392;2022-09-09T03:09:37;9.35;;;2.28;;
33573;SDS011;20085;50.832;4.392;2022-09-09T03:12:02;15.40;;;2.42;;
33573;SDS011;20085;50.832;4.392;2022-09-09T03:14:29;12.40;;;2.30;;
33573;SDS011;20085;50.832;4.392;2022-09-09T03:16:55;8.13;;;2.13;;
33573;SDS011;20085;50.832;4.392;2022-09-09T03:19:25;12.90;;;2.65;;
33573;SDS011;20085;50.832;4.392;2022-09-09T03:21:52;10.60;;;2.58;;
33573;SDS011;20085;50.832;4.392;2022-09-09T03:24:18;9.80;;;2.63;;
33573;SDS011;20085;50.832;4.392;2022-09-09T03:26:44;12.40;;;2.50;;
33573;SDS011;20085;50.832;4.392;2022-09-09T03:29:11;8.95;;;2.10;;
33573;SDS011;20085;50.832;4.392;2022-09-09T03:31:37;10.27;;;2.25;;
33573;SDS011;20085;50.832;4.392;2022-09-09T03:34:03;11.32;;;2.28;;
33573;SDS011;20085;50.832;4.392;2022-09-09T03:36:29;15.35;;;2.28;;
33573;SDS011;20085;50.832;4.392;2022-09-09T03:38:55;16.08;;;2.33;;
33573;SDS011;20085;50.832;4.392;2022-09-09T03:41:24;16.95;;;2.83;;
33573;SDS011;20085;50.832;4.392;2022-09-09T03:43:51;7.93;;;2.08;;
33573;SDS011;20085;50.832;4.392;2022-09-09T03:46:17;12.95;;;2.58;;
33573;SDS011;20085;50.832;4.392;2022-09-09T03:48:43;16.42;;;2.33;;
33573;SDS011;20085;50.832;4.392;2022-09-09T03:51:09;10.48;;;2.65;;
33573;SDS011;20085;50.832;4.392;2022-09-09T03:53:35;13.32;;;2.25;;
33573;SDS011;20085;50.832;4.392;2022-09-09T03:56:02;13.60;;;2.58;;
33573;SDS011;20085;50.832;4.392;2022-09-09T03:58:31;15.43;;;2.78;;
33573;SDS011;20085;50.832;4.392;2022-09-09T04:01:14;11.70;;;2.83;;
33573;SDS011;20085;50.832;4.392;2022-09-09T04:03:40;10.23;;;2.47;;
33573;SDS011;20085;50.832;4.392;2022-09-09T04:06:06;13.07;;;2.53;;
33573;SDS011;20085;50.832;4.392;2022-09-09T04:08:38;13.40;;;2.75;;
33573;SDS011;20085;50.832;4.392;2022-09-09T04:11:04;14.35;;;2.70;;
33573;SDS011;20085;50.832;4.392;2022-09-09T04:13:31;16.52;;;3.83;;
33573;SDS011;20085;50.832;4.392;2022-09-09T04:16:00;8.85;;;2.47;;
33573;SDS011;20085;50.832;4.392;2022-09-09T04:18:27;12.95;;;2.80;;
33573;SDS011;20085;50.832;4.392;2022-09-09T04:20:55;15.18;;;2.72;;
33573;SDS011;20085;50.832;4.392;2022-09-09T04:23:22;15.50;;;3.03;;
33573;SDS011;20085;50.832;4.392;2022-09-09T04:25:53;10.85;;;2.58;;
33573;SDS011;20085;50.832;4.392;2022-09-09T04:28:20;11.80;;;2.47;;
33573;SDS011;20085;50.832;4.392;2022-09-09T04:30:48;14.32;;;3.30;;
33573;SDS011;20085;50.832;4.392;2022-09-09T04:33:14;16.63;;;3.03;;
33573;SDS011;20085;50.832;4.392;2022-09-09T04:35:44;11.70;;;2.50;;
33573;SDS011;20085;50.832;4.392;2022-09-09T04:38:12;9.55;;;2.90;;
33573;SDS011;20085;50.832;4.392;2022-09-09T04:40:38;13.65;;;3.22;;
33573;SDS011;20085;50.832;4.392;2022-09-09T04:43:08;10.65;;;2.40;;
33573;SDS011;20085;50.832;4.392;2022-09-09T04:45:33;13.05;;;2.45;;
33573;SDS011;20085;50.832;4.392;2022-09-09T04:47:59;9.38;;;2.45;;
33573;SDS011;20085;50.832;4.392;2022-09-09T04:50:25;15.15;;;2.50;;
33573;SDS011;20085;50.832;4.392;2022-09-09T04:52:51;12.25;;;2.60;;
33573;SDS011;20085;50.832;4.392;2022-09-09T04:55:17;10.48;;;2.65;;
33573;SDS011;20085;50.832;4.392;2022-09-09T04:57:42;11.90;;;2.92;;
33573;SDS011;20085;50.832;4.392;2022-09-09T05:00:08;14.25;;;2.78;;
33573;SDS011;20085;50.832;4.392;2022-09-09T05:02:38;17.73;;;3.10;;
33573;SDS011;20085;50.832;4.392;2022-09-09T05:05:04;15.95;;;2.92;;
33573;SDS011;20085;50.832;4.392;2022-09-09T05:07:30;18.80;;;3.03;;
33573;SDS011;20085;50.832;4.392;2022-09-09T05:09:56;13.77;;;2.85;;
33573;SDS011;20085;50.832;4.392;2022-09-09T05:12:23;15.32;;;2.65;;
33573;SDS011;20085;50.832;4.392;2022-09-09T05:14:50;12.07;;;2.88;;
33573;SDS011;20085;50.832;4.392;2022-09-09T05:17:16;11.75;;;2.75;;
33573;SDS011;20085;50.832;4.392;2022-09-09T05:19:42;11.23;;;2.90;;
33573;SDS011;20085;50.832;4.392;2022-09-09T05:22:09;13.68;;;2.88;;
33573;SDS011;20085;50.832;4.392;2022-09-09T05:24:36;14.80;;;2.95;;
33573;SDS011;20085;50.832;4.392;2022-09-09T05:27:01;15.50;;;3.10;;
33573;SDS011;20085;50.832;4.392;2022-09-09T05:29:27;12.43;;;2.72;;
33573;SDS011;20085;50.832;4.392;2022-09-09T05:31:53;11.20;;;2.58;;
33573;SDS011;20085;50.832;4.392;2022-09-09T05:34:19;14.63;;;3.42;;
33573;SDS011;20085;50.832;4.392;2022-09-09T05:36:45;14.98;;;2.78;;
33573;SDS011;20085;50.832;4.392;2022-09-09T05:39:11;16.08;;;2.92;;
33573;SDS011;20085;50.832;4.392;2022-09-09T05:41:37;14.73;;;3.10;;
33573;SDS011;20085;50.832;4.392;2022-09-09T05:44:03;13.90;;;3.17;;
33573;SDS011;20085;50.832;4.392;2022-09-09T05:46:29;11.73;;;2.97;;
33573;SDS011;20085;50.832;4.392;2022-09-09T05:48:55;15.73;;;3.00;;
33573;SDS011;20085;50.832;4.392;2022-09-09T05:51:26;13.25;;;3.58;;
33573;SDS011;20085;50.832;4.392;2022-09-09T05:53:55;14.13;;;3.00;;
33573;SDS011;20085;50.832;4.392;2022-09-09T05:56:24;16.10;;;3.00;;
33573;SDS011;20085;50.832;4.392;2022-09-09T05:58:51;18.60;;;3.10;;
33573;SDS011;20085;50.832;4.392;2022-09-09T06:01:25;12.68;;;2.60;;
33573;SDS011;20085;50.832;4.392;2022-09-09T06:03:56;12.48;;;3.03;;
33573;SDS011;20085;50.832;4.392;2022-09-09T06:06:23;12.65;;;2.85;;
33573;SDS011;20085;50.832;4.392;2022-09-09T06:08:51;14.68;;;3.42;;
33573;SDS011;20085;50.832;4.392;2022-09-09T06:11:19;11.85;;;2.55;;
33573;SDS011;20085;50.832;4.392;2022-09-09T06:13:47;19.13;;;3.63;;
33573;SDS011;20085;50.832;4.392;2022-09-09T06:16:17;13.20;;;2.97;;
33573;SDS011;20085;50.832;4.392;2022-09-09T06:18:44;14.02;;;3.25;;
33573;SDS011;20085;50.832;4.392;2022-09-09T06:21:17;15.07;;;3.00;;
33573;SDS011;20085;50.832;4.392;2022-09-09T06:23:44;12.40;;;2.58;;
33573;SDS011;20085;50.832;4.392;2022-09-09T06:26:11;12.73;;;2.97;;
33573;SDS011;20085;50.832;4.392;2022-09-09T06:28:38;15.60;;;3.42;;
33573;SDS011;20085;50.832;4.392;2022-09-09T06:31:05;19.55;;;3.45;;
33573;SDS011;20085;50.832;4.392;2022-09-09T06:33:35;11.98;;;2.67;;
33573;SDS011;20085;50.832;4.392;2022-09-09T06:36:07;17.47;;;5.43;;
33573;SDS011;20085;50.832;4.392;2022-09-09T06:38:36;14.13;;;3.22;;
33573;SDS011;20085;50.832;4.392;2022-09-09T06:41:02;13.55;;;2.70;;
33573;SDS011;20085;50.832;4.392;2022-09-09T06:43:28;17.23;;;2.80;;
33573;SDS011;20085;50.832;4.392;2022-09-09T06:48:20;12.90;;;3.03;;
33573;SDS011;20085;50.832;4.392;2022-09-09T06:50:45;14.20;;;2.60;;
33573;SDS011;20085;50.832;4.392;2022-09-09T06:53:11;14.00;;;2.88;;
33573;SDS011;20085;50.832;4.392;2022-09-09T06:55:37;11.18;;;2.80;;
33573;SDS011;20085;50.832;4.392;2022-09-09T06:58:07;11.85;;;3.08;;
33573;SDS011;20085;50.832;4.392;2022-09-09T07:00:33;15.38;;;2.92;;
33573;SDS011;20085;50.832;4.392;2022-09-09T07:02:59;12.57;;;2.70;;
33573;SDS011;20085;50.832;4.392;2022-09-09T07:05:25;11.00;;;2.40;;
33573;SDS011;20085;50.832;4.392;2022-09-09T07:07:50;9.85;;;2.60;;
33573;SDS011;20085;50.832;4.392;2022-09-09T07:10:17;13.65;;;2.90;;
33573;SDS011;20085;50.832;4.392;2022-09-09T07:12:42;14.90;;;2.70;;
33573;SDS011;20085;50.832;4.392;2022-09-09T07:15:08;20.02;;;3.00;;
33573;SDS011;20085;50.832;4.392;2022-09-09T07:17:34;13.75;;;2.80;;
33573;SDS011;20085;50.832;4.392;2022-09-09T07:20:00;12.50;;;4.60;;
33573;SDS011;20085;50.832;4.392;2022-09-09T07:22:27;12.85;;;2.70;;
33573;SDS011;20085;50.832;4.392;2022-09-09T07:24:53;17.73;;;2.88;;
33573;SDS011;20085;50.832;4.392;2022-09-09T07:27:19;16.30;;;3.25;;
33573;SDS011;20085;50.832;4.392;2022-09-09T07:29:44;11.00;;;2.35;;
33573;SDS011;20085;50.832;4.392;2022-09-09T07:32:10;15.73;;;3.03;;
33573;SDS011;20085;50.832;4.392;2022-09-09T07:34:36;15.25;;;2.63;;
33573;SDS011;20085;50.832;4.392;2022-09-09T07:37:02;14.10;;;2.90;;
33573;SDS011;20085;50.832;4.392;2022-09-09T07:39:31;10.05;;;2.45;;
33573;SDS011;20085;50.832;4.392;2022-09-09T07:41:57;14.60;;;2.92;;
33573;SDS011;20085;50.832;4.392;2022-09-09T07:44:23;16.17;;;2.85;;
33573;SDS011;20085;50.832;4.392;2022-09-09T07:46:50;11.60;;;2.83;;
33573;SDS011;20085;50.832;4.392;2022-09-09T07:49:16;16.90;;;3.22;;
33573;SDS011;20085;50.832;4.392;2022-09-09T07:51:44;13.18;;;3.05;;
33573;SDS011;20085;50.832;4.392;2022-09-09T07:54:12;11.40;;;2.95;;
33573;SDS011;20085;50.832;4.392;2022-09-09T07:56:39;12.35;;;3.38;;
33573;SDS011;20085;50.832;4.392;2022-09-09T07:59:06;15.02;;;3.30;;
33573;SDS011;20085;50.832;4.392;2022-09-09T08:01:33;13.98;;;3.60;;
33573;SDS011;20085;50.832;4.392;2022-09-09T08:04:04;14.10;;;3.00;;
33573;SDS011;20085;50.832;4.392;2022-09-09T08:06:34;19.63;;;3.53;;
33573;SDS011;20085;50.832;4.392;2022-09-09T08:09:02;13.30;;;3.50;;
33573;SDS011;20085;50.832;4.392;2022-09-09T08:11:31;14.93;;;3.15;;
33573;SDS011;20085;50.832;4.392;2022-09-09T08:13:58;14.68;;;3.10;;
33573;SDS011;20085;50.832;4.392;2022-09-09T08:16:25;16.48;;;3.50;;
33573;SDS011;20085;50.832;4.392;2022-09-09T08:18:52;15.10;;;2.88;;
33573;SDS011;20085;50.832;4.392;2022-09-09T08:21:20;10.20;;;2.75;;
33573;SDS011;20085;50.832;4.392;2022-09-09T08:23:49;12.13;;;2.85;;
33573;SDS011;20085;50.832;4.392;2022-09-09T08:26:18;17.83;;;3.05;;
33573;SDS011;20085;50.832;4.392;2022-09-09T08:28:47;16.13;;;3.50;;
33573;SDS011;20085;50.832;4.392;2022-09-09T08:31:19;12.32;;;3.28;;
33573;SDS011;20085;50.832;4.392;2022-09-09T08:33:46;14.48;;;3.17;;
33573;SDS011;20085;50.832;4.392;2022-09-09T08:36:23;11.18;;;2.85;;
33573;SDS011;20085;50.832;4.392;2022-09-09T08:38:52;14.82;;;3.10;;
33573;SDS011;20085;50.832;4.392;2022-09-09T08:41:30;11.13;;;3.15;;
33573;SDS011;20085;50.832;4.392;2022-09-09T08:47:08;17.80;;;3.78;;
33573;SDS011;20085;50.832;4.392;2022-09-09T08:52:16;12.73;;;2.92;;
33573;SDS011;20085;50.832;4.392;2022-09-09T08:55:10;14.88;;;2.67;;
33573;SDS011;20085;50.832;4.392;2022-09-09T08:57:38;21.92;;;3.35;;
33573;SDS011;20085;50.832;4.392;2022-09-09T09:00:04;14.27;;;3.20;;
33573;SDS011;20085;50.832;4.392;2022-09-09T09:10:46;15.88;;;3.28;;
33573;SDS011;20085;50.832;4.392;2022-09-09T09:13:18;11.18;;;3.00;;
33573;SDS011;20085;50.832;4.392;2022-09-09T09:16:22;13.60;;;3.20;;
33573;SDS011;20085;50.832;4.392;2022-09-09T09:18:51;12.50;;;3.53;;
33573;SDS011;20085;50.832;4.392;2022-09-09T09:23:55;11.23;;;2.85;;
33573;SDS011;20085;50.832;4.392;2022-09-09T09:26:29;15.43;;;3.55;;
33573;SDS011;20085;50.832;4.392;2022-09-09T09:28:57;14.50;;;2.83;;
33573;SDS011;20085;50.832;4.392;2022-09-09T09:31:25;18.63;;;3.00;;
33573;SDS011;20085;50.832;4.392;2022-09-09T09:33:54;12.55;;;3.20;;
33573;SDS011;20085;50.832;4.392;2022-09-09T09:36:25;15.05;;;2.88;;
33573;SDS011;20085;50.832;4.392;2022-09-09T09:39:00;13.27;;;3.00;;
33573;SDS011;20085;50.832;4.392;2022-09-09T09:41:38;14.07;;;3.08;;
33573;SDS011;20085;50.832;4.392;2022-09-09T09:44:06;11.15;;;3.13;;
33573;SDS011;20085;50.832;4.392;2022-09-09T09:47:12;14.35;;;3.28;;
33573;SDS011;20085;50.832;4.392;2022-09-09T09:49:38;12.13;;;2.83;;
33573;SDS011;20085;50.832;4.392;2022-09-09T09:52:05;11.25;;;2.83;;
33573;SDS011;20085;50.832;4.392;2022-09-09T09:54:33;11.57;;;2.90;;
33573;SDS011;20085;50.832;4.392;2022-09-09T09:57:09;14.15;;;3.38;;
33573;SDS011;20085;50.832;4.392;2022-09-09T09:59:36;13.37;;;3.47;;
33573;SDS011;20085;50.832;4.392;2022-09-09T10:04:44;13.32;;;3.08;;
33573;SDS011;20085;50.832;4.392;2022-09-09T10:07:18;11.93;;;3.00;;
33573;SDS011;20085;50.832;4.392;2022-09-09T10:09:46;11.25;;;3.17;;
33573;SDS011;20085;50.832;4.392;2022-09-09T10:15:30;12.80;;;3.07;;
33573;SDS011;20085;50.832;4.392;2022-09-09T10:20:42;14.27;;;3.45;;
33573;SDS011;20085;50.832;4.392;2022-09-09T10:31:43;11.23;;;2.80;;
33573;SDS011;20085;50.832;4.392;2022-09-09T10:40:31;10.52;;;3.22;;
33573;SDS011;20085;50.832;4.392;2022-09-09T10:51:46;19.80;;;5.00;;
33573;SDS011;20085;50.832;4.392;2022-09-09T10:56:49;9.52;;;3.03;;
33573;SDS011;20085;50.832;4.392;2022-09-09T10:59:23;13.65;;;3.00;;
33573;SDS011;20085;50.832;4.392;2022-09-09T11:04:27;12.57;;;3.10;;
33573;SDS011;20085;50.832;4.392;2022-09-09T11:07:07;14.15;;;3.58;;
33573;SDS011;20085;50.832;4.392;2022-09-09T11:09:39;10.43;;;2.22;;
33573;SDS011;20085;50.832;4.392;2022-09-09T11:12:15;11.23;;;3.28;;
33573;SDS011;20085;50.832;4.392;2022-09-09T11:14:45;13.93;;;2.75;;
33573;SDS011;20085;50.832;4.392;2022-09-09T11:17:24;10.35;;;2.45;;
33573;SDS011;20085;50.832;4.392;2022-09-09T11:19:57;13.27;;;2.95;;
33573;SDS011;20085;50.832;4.392;2022-09-09T11:22:33;11.98;;;3.40;;
33573;SDS011;20085;50.832;4.392;2022-09-09T11:42:04;12.70;;;3.03;;
33573;SDS011;20085;50.832;4.392;2022-09-09T11:44:32;12.95;;;3.35;;
33573;SDS011;20085;50.832;4.392;2022-09-09T11:46:58;12.50;;;2.95;;
33573;SDS011;20085;50.832;4.392;2022-09-09T11:49:28;10.63;;;2.30;;
33573;SDS011;20085;50.832;4.392;2022-09-09T11:55:00;11.88;;;2.85;;
33573;SDS011;20085;50.832;4.392;2022-09-09T11:58:02;10.63;;;2.88;;
33573;SDS011;20085;50.832;4.392;2022-09-09T12:00:36;12.60;;;2.90;;
33573;SDS011;20085;50.832;4.392;2022-09-09T12:03:05;10.10;;;2.50;;
33573;SDS011;20085;50.832;4.392;2022-09-09T12:05:38;10.57;;;2.63;;
33573;SDS011;20085;50.832;4.392;2022-09-09T12:08:05;10.43;;;2.42;;
33573;SDS011;20085;50.832;4.392;2022-09-09T12:10:35;10.05;;;2.65;;
33573;SDS011;20085;50.832;4.392;2022-09-09T12:13:07;12.63;;;2.92;;
33573;SDS011;20085;50.832;4.392;2022-09-09T12:15:51;9.57;;;2.37;;
33573;SDS011;20085;50.832;4.392;2022-09-09T12:18:23;9.23;;;2.20;;
33573;SDS011;20085;50.832;4.392;2022-09-09T12:23:33;9.57;;;2.20;;
33573;SDS011;20085;50.832;4.392;2022-09-09T12:33:48;8.90;;;2.50;;
33573;SDS011;20085;50.832;4.392;2022-09-09T12:36:24;10.90;;;2.70;;
33573;SDS011;20085;50.832;4.392;2022-09-09T12:38:54;5.95;;;1.90;;
33573;SDS011;20085;50.832;4.392;2022-09-09T12:41:35;8.50;;;2.47;;
33573;SDS011;20085;50.832;4.392;2022-09-09T12:44:08;16.55;;;2.92;;
33573;SDS011;20085;50.832;4.392;2022-09-09T12:46:39;8.95;;;2.28;;
33573;SDS011;20085;50.832;4.392;2022-09-09T12:51:56;6.90;;;2.45;;
33573;SDS011;20085;50.832;4.392;2022-09-09T12:54:22;6.20;;;1.75;;
33573;SDS011;20085;50.832;4.392;2022-09-09T12:56:48;7.13;;;2.17;;
33573;SDS011;20085;50.832;4.392;2022-09-09T12:59:25;7.20;;;2.25;;
33573;SDS011;20085;50.832;4.392;2022-09-09T13:01:56;9.68;;;2.00;;
33573;SDS011;20085;50.832;4.392;2022-09-09T13:04:22;7.55;;;2.20;;
33573;SDS011;20085;50.832;4.392;2022-09-09T13:06:48;7.10;;;2.30;;
33573;SDS011;20085;50.832;4.392;2022-09-09T13:09:14;10.43;;;2.08;;
33573;SDS011;20085;50.832;4.392;2022-09-09T13:11:41;9.35;;;2.83;;
33573;SDS011;20085;50.832;4.392;2022-09-09T13:14:13;9.70;;;2.92;;
33573;SDS011;20085;50.832;4.392;2022-09-09T13:16:53;7.80;;;2.42;;
33573;SDS011;20085;50.832;4.392;2022-09-09T13:19:30;7.78;;;2.15;;
33573;SDS011;20085;50.832;4.392;2022-09-09T13:22:00;8.40;;;2.58;;
33573;SDS011;20085;50.832;4.392;2022-09-09T13:24:38;9.90;;;2.70;;
33573;SDS011;20085;50.832;4.392;2022-09-09T13:27:25;10.10;;;2.30;;
33573;SDS011;20085;50.832;4.392;2022-09-09T13:29:57;7.10;;;1.95;;
33573;SDS011;20085;50.832;4.392;2022-09-09T13:32:23;8.30;;;2.40;;
33573;SDS011;20085;50.832;4.392;2022-09-09T13:34:55;8.60;;;2.50;;
33573;SDS011;20085;50.832;4.392;2022-09-09T13:37:26;7.82;;;2.00;;
33573;SDS011;20085;50.832;4.392;2022-09-09T13:42:28;10.70;;;1.88;;
33573;SDS011;20085;50.832;4.392;2022-09-09T13:44:56;6.57;;;2.30;;
33573;SDS011;20085;50.832;4.392;2022-09-09T13:47:34;8.52;;;2.10;;
33573;SDS011;20085;50.832;4.392;2022-09-09T13:50:20;7.75;;;1.98;;
33573;SDS011;20085;50.832;4.392;2022-09-09T13:52:48;7.43;;;2.10;;
33573;SDS011;20085;50.832;4.392;2022-09-09T13:55:19;8.52;;;2.80;;
33573;SDS011;20085;50.832;4.392;2022-09-09T13:57:53;8.60;;;2.30;;
33573;SDS011;20085;50.832;4.392;2022-09-09T14:00:30;8.63;;;2.58;;
33573;SDS011;20085;50.832;4.392;2022-09-09T14:02:59;6.43;;;1.63;;
33573;SDS011;20085;50.832;4.392;2022-09-09T14:05:27;6.55;;;2.40;;
33573;SDS011;20085;50.832;4.392;2022-09-09T14:07:53;6.75;;;2.25;;
33573;SDS011;20085;50.832;4.392;2022-09-09T14:10:19;8.48;;;2.00;;
33573;SDS011;20085;50.832;4.392;2022-09-09T14:12:44;10.52;;;2.10;;
33573;SDS011;20085;50.832;4.392;2022-09-09T14:15:11;8.77;;;2.13;;
33573;SDS011;20085;50.832;4.392;2022-09-09T14:17:37;8.18;;;2.10;;
33573;SDS011;20085;50.832;4.392;2022-09-09T14:20:04;7.15;;;2.20;;
33573;SDS011;20085;50.832;4.392;2022-09-09T14:22:33;8.55;;;2.28;;
33573;SDS011;20085;50.832;4.392;2022-09-09T14:24:59;11.88;;;2.45;;
33573;SDS011;20085;50.832;4.392;2022-09-09T14:27:24;11.93;;;2.30;;
33573;SDS011;20085;50.832;4.392;2022-09-09T14:29:51;8.43;;;2.25;;
33573;SDS011;20085;50.832;4.392;2022-09-09T14:32:17;9.32;;;2.28;;
33573;SDS011;20085;50.832;4.392;2022-09-09T14:34:43;8.60;;;2.55;;
33573;SDS011;20085;50.832;4.392;2022-09-09T14:37:09;7.95;;;2.75;;
33573;SDS011;20085;50.832;4.392;2022-09-09T14:39:35;10.50;;;2.45;;
33573;SDS011;20085;50.832;4.392;2022-09-09T14:42:00;7.15;;;2.17;;
33573;SDS011;20085;50.832;4.392;2022-09-09T14:44:27;9.80;;;3.38;;
33573;SDS011;20085;50.832;4.392;2022-09-09T14:46:53;13.50;;;3.20;;
33573;SDS011;20085;50.832;4.392;2022-09-09T14:49:19;8.90;;;2.42;;
33573;SDS011;20085;50.832;4.392;2022-09-09T14:51:44;7.80;;;2.30;;
33573;SDS011;20085;50.832;4.392;2022-09-09T14:54:10;7.75;;;1.98;;
33573;SDS011;20085;50.832;4.392;2022-09-09T14:56:37;7.68;;;2.10;;
33573;SDS011;20085;50.832;4.392;2022-09-09T14:59:03;8.77;;;2.00;;
33573;SDS011;20085;50.832;4.392;2022-09-09T15:01:29;12.75;;;2.05;;
33573;SDS011;20085;50.832;4.392;2022-09-09T15:04:00;8.68;;;1.88;;
33573;SDS011;20085;50.832;4.392;2022-09-09T15:06:28;6.82;;;1.92;;
33573;SDS011;20085;50.832;4.392;2022-09-09T15:08:55;9.07;;;2.30;;
33573;SDS011;20085;50.832;4.392;2022-09-09T15:11:26;15.50;;;2.42;;
33573;SDS011;20085;50.832;4.392;2022-09-09T15:13:53;9.45;;;2.30;;
33573;SDS011;20085;50.832;4.392;2022-09-09T15:16:20;9.48;;;2.60;;
33573;SDS011;20085;50.832;4.392;2022-09-09T15:18:49;9.15;;;2.20;;
33573;SDS011;20085;50.832;4.392;2022-09-09T15:21:17;11.55;;;2.00;;
33573;SDS011;20085;50.832;4.392;2022-09-09T15:23:45;9.73;;;2.30;;
33573;SDS011;20085;50.832;4.392;2022-09-09T15:26:11;7.22;;;2.00;;
33573;SDS011;20085;50.832;4.392;2022-09-09T15:28:39;7.63;;;2.05;;
33573;SDS011;20085;50.832;4.392;2022-09-09T15:31:06;6.20;;;2.03;;
33573;SDS011;20085;50.832;4.392;2022-09-09T15:33:34;9.20;;;2.42;;
33573;SDS011;20085;50.832;4.392;2022-09-09T15:36:11;9.60;;;2.50;;
33573;SDS011;20085;50.832;4.392;2022-09-09T15:38:41;8.20;;;2.25;;
33573;SDS011;20085;50.832;4.392;2022-09-09T15:41:08;8.45;;;2.75;;
33573;SDS011;20085;50.832;4.392;2022-09-09T15:43:33;9.40;;;2.42;;
33573;SDS011;20085;50.832;4.392;2022-09-09T15:46:00;8.05;;;2.45;;
33573;SDS011;20085;50.832;4.392;2022-09-09T15:51:37;7.80;;;2.10;;
33573;SDS011;20085;50.832;4.392;2022-09-09T15:54:04;9.02;;;2.15;;
33573;SDS011;20085;50.832;4.392;2022-09-09T15:56:30;8.35;;;2.10;;
33573;SDS011;20085;50.832;4.392;2022-09-09T15:58:57;7.43;;;2.33;;
33573;SDS011;20085;50.832;4.392;2022-09-09T16:01:24;7.65;;;2.25;;
33573;SDS011;20085;50.832;4.392;2022-09-09T16:03:51;10.77;;;2.90;;
33573;SDS011;20085;50.832;4.392;2022-09-09T16:06:18;9.75;;;2.92;;
33573;SDS011;20085;50.832;4.392;2022-09-09T16:08:46;7.85;;;2.53;;
33573;SDS011;20085;50.832;4.392;2022-09-09T16:11:19;9.48;;;2.40;;
33573;SDS011;20085;50.832;4.392;2022-09-09T16:13:49;8.83;;;2.27;;
33573;SDS011;20085;50.832;4.392;2022-09-09T16:16:17;7.18;;;2.35;;
33573;SDS011;20085;50.832;4.392;2022-09-09T16:18:51;9.00;;;2.70;;
33573;SDS011;20085;50.832;4.392;2022-09-09T16:21:23;10.02;;;3.05;;
33573;SDS011;20085;50.832;4.392;2022-09-09T16:23:50;13.05;;;2.97;;
33573;SDS011;20085;50.832;4.392;2022-09-09T16:26:18;8.05;;;3.20;;
33573;SDS011;20085;50.832;4.392;2022-09-09T16:28:44;8.20;;;2.70;;
33573;SDS011;20085;50.832;4.392;2022-09-09T16:31:12;11.63;;;2.75;;
33573;SDS011;20085;50.832;4.392;2022-09-09T16:33:41;10.10;;;3.00;;
33573;SDS011;20085;50.832;4.392;2022-09-09T16:36:07;10.75;;;3.58;;
33573;SDS011;20085;50.832;4.392;2022-09-09T16:38:35;10.88;;;2.53;;
33573;SDS011;20085;50.832;4.392;2022-09-09T16:41:01;7.57;;;2.72;;
33573;SDS011;20085;50.832;4.392;2022-09-09T16:43:30;10.20;;;2.70;;
33573;SDS011;20085;50.832;4.392;2022-09-09T16:45:57;6.85;;;2.78;;
33573;SDS011;20085;50.832;4.392;2022-09-09T16:48:25;7.05;;;2.45;;
33573;SDS011;20085;50.832;4.392;2022-09-09T16:51:04;10.43;;;3.90;;
33573;SDS011;20085;50.832;4.392;2022-09-09T16:53:31;12.88;;;4.82;;
33573;SDS011;20085;50.832;4.392;2022-09-09T16:55:58;8.38;;;3.17;;
33573;SDS011;20085;50.832;4.392;2022-09-09T16:58:29;7.57;;;2.85;;
33573;SDS011;20085;50.832;4.392;2022-09-09T17:00:58;10.27;;;2.80;;
33573;SDS011;20085;50.832;4.392;2022-09-09T17:03:24;8.32;;;2.53;;
33573;SDS011;20085;50.832;4.392;2022-09-09T17:05:51;10.30;;;2.83;;
33573;SDS011;20085;50.832;4.392;2022-09-09T17:08:16;11.90;;;3.30;;
33573;SDS011;20085;50.832;4.392;2022-09-09T17:10:42;9.18;;;3.45;;
33573;SDS011;20085;50.832;4.392;2022-09-09T17:13:08;13.25;;;3.20;;
33573;SDS011;20085;50.832;4.392;2022-09-09T17:15:38;9.80;;;3.13;;